Al-Shuaiba, Kuwait

8:13 PM AST on July 26, 2014 (GMT +0300)
Julai'a (IALASIMA2) Elev 26 ft | 28.92 °N, 48.21 °E | Change Station

Current weather conditions updated 0 second ago

Clear
Clear
106.9 °F
Feels Like 101 °F
N
1.8
Wind Variable Wind from SSE
Gusts 2.5 mph

Tomorrow is forecast to be nearly the same temperature as today.

Today
High -- | Low -- °F
--% Chance of Precip.
Yesterday
High -- | Low -- °F
Precip. -- in
5:04 AM 6:43 PM
Waning Crescent, 0% visible
Pressure 29.53 in
Visibility -9999.0 miles
Clouds
Heat Index 101 °F
Dew Point 39 °F
Humidity 10%
Rainfall 0.00 in
Snow Depth Not available.
UV Not available.
Pollen Not available.
Air Quality Not available.
Flu Activity Not available.
METAR OKBK 261600Z 32011KT CAVOK 44/03 Q1000 NOSIG

More Conditions Fewer Conditions

Pressure 29.53 in
Visibility -9999.0 miles
Clouds
Heat Index 101 °F
Dew Point 39 °F
Humidity 10%
Rainfall 0.00 in
Snow Depth Not available.
UV Not available.
Pollen Not available.
Air Quality Not available.
Flu Activity Not available.
METAR OKBK 261600Z 32011KT CAVOK 44/03 Q1000 NOSIG

More Conditions Fewer Conditions

10-Day Weather Forecast

Almanac

Astronomy

Jul. 26, 2014 Rise Set
Actual Time 5:04 AM AST 6:43 PM AST
Civil Twilight 4:38 AM AST 7:08 PM AST
Nautical Twilight 4:07 AM AST 7:40 PM AST
Astronomical Twilight 3:34 AM AST 8:12 PM AST
Moon 4:32 AM AST 6:09 PM AST
Length of Visible Light 14h 30m
Length of Day
13h 38m
Tomorrow will be 1m 10s shorter.
Waning Crescent, 0% of the Moon is Illuminated
Today
Waning Crescent
Jul 26
New
Aug 3
First Quarter
Aug 10
Full
Aug 17
Last Quarter

Today's Extremes

Country Highs Country Lows

Community

WunderPhotos

Upload Photos

1,737,638 photos uploaded!

Nearby

Snow Depth

Not available.

Earthquake Activity

City Distance Mag. Time & Date
No recent earthquake activity has been reported nearby.
Minimum magnitude displayed is 2.5.

Coastal Water Temperatures

Place Temperature
No Stations Reporting

Nearby Weather Stations

Station Location Temp. Heat Index Dew Point Humidity Wind Precip. Elev Updated Type
Julai'a, Kuwait City 106.9 °F 101 °F 39 °F 10% SSE  at  1.8 mph 0.00 in / hr 26 ft 8:13 PM AST Rapid Fire
Abdullah Al-Salem Area, Abdullah Alsalem 108.4 °F 104 °F 46 °F 12% WNW  at  5.0 mph 0.00 in / hr 59 ft 8:08 PM AST Normal

Show More Stations Show Fewer Stations